Time;durP1;ratioP1;P1;durP2;ratioP2;P2;SDS_P1;SDS_P2;PMS_P1;PMS_P2;Temp;Humidity;BMP_temperature;BMP_pressure;BME280_temperature;BME280_humidity;BME280_pressure;Samples;Min_cycle;Max_cycle;Signal;HPM_P1;HPM_P2
2022/01/05 00:01:10;;;;;;;;;;;;;;;;;;5073544;28;20431;-88
2022/01/05 00:03:37;;;;;;;;;;;;;;;;;;5073444;28;20061;-87
2022/01/05 00:06:04;;;;;;;;;;;;;;;;;;5073427;28;20056;-87
2022/01/05 00:08:31;;;;;;;;;;;;;;;;;;5073203;28;20051;-88
2022/01/05 00:10:58;;;;;;;;;;;;;;;;;;5073480;28;20379;-88
2022/01/05 00:13:25;;;;;;;;;;;;;;;;;;5074539;28;20001;-87
2022/01/05 00:15:52;;;;;;;;;;;;;;;;;;5073988;28;20046;-87
2022/01/05 00:18:19;;;;;;;;;;;;;;;;;;5074811;28;20474;-87
2022/01/05 00:20:46;;;;;;;;;;;;;;;;;;5076860;28;20412;-89
2022/01/05 00:23:13;;;;;;;;;;;;;;;;;;5077433;28;20036;-88
2022/01/05 00:25:40;;;;;;;;;;;;;;;;;;5076893;28;19956;-87
2022/01/05 00:28:07;;;;;;;;;;;;;;;;;;5076807;28;20063;-88
2022/01/05 00:30:34;;;;;;;;;;;;;;;;;;5076538;28;20399;-87
2022/01/05 00:33:01;;;;;;;;;;;;;;;;;;5077681;28;20077;-89
2022/01/05 00:35:28;;;;;;;;;;;;;;;;;;5077432;28;20498;-86
2022/01/05 00:37:55;;;;;;;;;;;;;;;;;;5077367;28;20045;-87
2022/01/05 00:40:22;;;;;;;;;;;;;;;;;;5076616;28;20056;-88
2022/01/05 00:42:49;;;;;;;;;;;;;;;;;;5076507;28;20074;-88
2022/01/05 00:45:16;;;;;;;;;;;;;;;;;;5077811;28;20483;-87
2022/01/05 00:47:43;;;;;;;;;;;;;;;;;;5077773;28;20118;-86
2022/01/05 00:50:10;;;;;;;;;;;;;;;;;;5079687;28;20397;-88
2022/01/05 00:52:37;;;;;;;;;;;;;;;;;;5077058;28;20049;-89
2022/01/05 00:55:04;;;;;;;;;;;;;;;;;;5076524;28;20055;-90
2022/01/05 00:57:31;;;;;;;;;;;;;;;;;;5076309;28;20413;-89
2022/01/05 00:59:58;;;;;;;;;;;;;;;;;;5076266;28;20007;-88
2022/01/05 01:02:25;;;;;;;;;;;;;;;;;;5076242;28;20465;-86
2022/01/05 01:04:52;;;;;;;;;;;;;;;;;;5076606;28;20001;-88
2022/01/05 01:07:19;;;;;;;;;;;;;;;;;;5076300;28;20043;-89
2022/01/05 01:09:46;;;;;;;;;;;;;;;;;;5076802;28;19969;-87
2022/01/05 01:12:13;;;;;;;;;;;;;;;;;;5076475;28;20071;-86
2022/01/05 01:14:40;;;;;;;;;;;;;;;;;;5075593;28;20055;-86
2022/01/05 01:17:07;;;;;;;;;;;;;;;;;;5075553;28;20496;-86
2022/01/05 01:19:34;;;;;;;;;;;;;;;;;;5075451;28;20042;-86
2022/01/05 01:22:01;;;;;;;;;;;;;;;;;;5075821;28;20056;-86
2022/01/05 01:24:28;;;;;;;;;;;;;;;;;;5076024;28;20053;-85
2022/01/05 01:26:55;;;;;;;;;;;;;;;;;;5075317;28;20049;-86
2022/01/05 01:29:22;;;;;;;;;;;;;;;;;;5074822;28;20385;-86
2022/01/05 01:31:49;;;;;;;;;;;;;;;;;;5075211;28;20056;-85
2022/01/05 01:34:16;;;;;;;;;;;;;;;;;;5075669;28;19956;-87
2022/01/05 01:36:43;;;;;;;;;;;;;;;;;;5075550;28;20055;-86
2022/01/05 01:39:10;;;;;;;;;;;;;;;;;;5075005;28;20060;-85
2022/01/05 01:41:37;;;;;;;;;;;;;;;;;;5074869;28;20524;-88
2022/01/05 01:44:04;;;;;;;;;;;;;;;;;;5075593;28;20353;-85
2022/01/05 01:46:31;;;;;;;;;;;;;;;;;;5074855;28;19997;-87
2022/01/05 01:48:58;;;;;;;;;;;;;;;;;;5074562;28;20020;-84
2022/01/05 01:51:25;;;;;;;;;;;;;;;;;;5074851;28;20004;-85
2022/01/05 01:53:52;;;;;;;;;;;;;;;;;;5074568;28;20438;-85
2022/01/05 01:56:19;;;;;;;;;;;;;;;;;;5074798;28;19985;-85
2022/01/05 01:58:48;;;;;;;;;;;;;;;;;;5074613;28;20054;-85
2022/01/05 02:01:15;;;;;;;;;;;;;;;;;;5074718;28;19975;-84
2022/01/05 02:03:42;;;;;;;;;;;;;;;;;;5074254;28;20482;-86
2022/01/05 02:06:09;;;;;;;;;;;;;;;;;;5074840;28;20064;-84
2022/01/05 02:08:36;;;;;;;;;;;;;;;;;;5074722;28;20040;-85
2022/01/05 02:11:03;;;;;;;;;;;;;;;;;;5074653;28;20048;-85
2022/01/05 02:13:30;;;;;;;;;;;;;;;;;;5074348;28;20062;-84
2022/01/05 02:15:57;;;;;;;;;;;;;;;;;;5074424;28;20061;-85
2022/01/05 02:21:08;;;;;;;;;;;;;;;;;;5074225;28;19939;-84
2022/01/05 02:23:35;;;;;;;;;;;;;;;;;;5074122;28;20475;-84
2022/01/05 02:26:02;;;;;;;;;;;;;;;;;;5074102;28;20386;-84
2022/01/05 02:28:29;;;;;;;;;;;;;;;;;;5074077;28;19957;-85
2022/01/05 02:30:57;;;;;;;;;;;;;;;;;;5073965;28;20047;-85
2022/01/05 02:33:24;;;;;;;;;;;;;;;;;;5074226;28;20045;-84
2022/01/05 02:35:51;;;;;;;;;;;;;;;;;;5073840;28;19955;-84
2022/01/05 02:38:18;;;;;;;;;;;;;;;;;;5073902;28;20023;-85
2022/01/05 02:40:45;;;;;;;;;;;;;;;;;;5073549;28;20043;-85
2022/01/05 02:43:12;;;;;;;;;;;;;;;;;;5073656;28;19987;-84
2022/01/05 02:45:39;;;;;;;;;;;;;;;;;;5073871;28;19955;-83
2022/01/05 02:48:06;;;;;;;;;;;;;;;;;;5073871;28;20023;-86
2022/01/05 02:50:33;;;;;;;;;;;;;;;;;;5073955;28;20058;-85
2022/01/05 02:52:59;;;;;;;;;;;;;;;;;;5073668;28;20376;-85
2022/01/05 02:55:26;;;;;;;;;;;;;;;;;;5073695;28;20042;-84
2022/01/05 02:57:53;;;;;;;;;;;;;;;;;;5073600;28;20036;-85
2022/01/05 03:00:20;;;;;;;;;;;;;;;;;;5073627;28;20063;-84
2022/01/05 03:02:47;;;;;;;;;;;;;;;;;;5073901;28;20071;-85
2022/01/05 03:05:15;;;;;;;;;;;;;;;;;;5073486;28;19995;-85
2022/01/05 03:07:42;;;;;;;;;;;;;;;;;;5073731;28;19960;-84
2022/01/05 03:10:09;;;;;;;;;;;;;;;;;;5073569;28;19996;-84
2022/01/05 03:12:36;;;;;;;;;;;;;;;;;;5073297;28;20086;-85
2022/01/05 03:15:04;;;;;;;;;;;;;;;;;;5073677;28;19956;-84
2022/01/05 03:17:31;;;;;;;;;;;;;;;;;;5073604;28;19960;-84
2022/01/05 03:19:58;;;;;;;;;;;;;;;;;;5073374;28;19996;-84
2022/01/05 03:22:25;;;;;;;;;;;;;;;;;;5073740;28;20420;-83
2022/01/05 03:24:52;;;;;;;;;;;;;;;;;;5073592;28;20047;-85
2022/01/05 03:27:18;;;;;;;;;;;;;;;;;;5073486;28;20040;-85
2022/01/05 03:29:45;;;;;;;;;;;;;;;;;;5073503;28;20047;-84
2022/01/05 03:32:12;;;;;;;;;;;;;;;;;;5073285;28;20055;-84
2022/01/05 03:34:40;;;;;;;;;;;;;;;;;;5073420;28;20013;-84
2022/01/05 03:37:07;;;;;;;;;;;;;;;;;;5073356;28;20404;-82
2022/01/05 03:39:34;;;;;;;;;;;;;;;;;;5073192;28;19998;-84
2022/01/05 03:42:01;;;;;;;;;;;;;;;;;;5073298;28;20058;-84
2022/01/05 03:44:28;;;;;;;;;;;;;;;;;;5073372;28;20049;-84
2022/01/05 03:46:55;;;;;;;;;;;;;;;;;;5073348;28;20048;-83
2022/01/05 03:49:23;;;;;;;;;;;;;;;;;;5073048;28;20439;-84
2022/01/05 03:51:50;;;;;;;;;;;;;;;;;;5073005;28;19961;-85
2022/01/05 03:54:17;;;;;;;;;;;;;;;;;;5076093;28;20007;-83
2022/01/05 03:56:44;;;;;;;;;;;;;;;;;;5077272;28;19990;-84
2022/01/05 03:59:11;;;;;;;;;;;;;;;;;;5077095;28;20048;-84
2022/01/05 04:01:38;;;;;;;;;;;;;;;;;;5076772;28;19962;-83
2022/01/05 04:04:05;;;;;;;;;;;;;;;;;;5076736;28;20054;-84
2022/01/05 04:06:32;;;;;;;;;;;;;;;;;;5076913;28;20058;-86
2022/01/05 04:08:59;;;;;;;;;;;;;;;;;;5077420;28;20391;-85
2022/01/05 04:11:26;;;;;;;;;;;;;;;;;;5078832;28;19957;-85
2022/01/05 04:13:53;;;;;;;;;;;;;;;;;;5078322;28;20391;-86
2022/01/05 04:16:19;;;;;;;;;;;;;;;;;;5079685;28;20001;-86
2022/01/05 04:18:46;;;;;;;;;;;;;;;;;;5077205;28;20059;-88
2022/01/05 04:21:14;;;;;;;;;;;;;;;;;;5080660;28;19995;-87
2022/01/05 04:23:42;;;;;;;;;;;;;;;;;;5095944;28;21349;-87
2022/01/05 04:26:09;;;;;;;;;;;;;;;;;;5097127;28;20057;-88
2022/01/05 04:28:37;;;;;;;;;;;;;;;;;;5096846;28;20045;-87
2022/01/05 04:31:04;;;;;;;;;;;;;;;;;;5096680;28;20377;-87
2022/01/05 04:33:31;;;;;;;;;;;;;;;;;;5096523;28;20052;-87
2022/01/05 04:35:58;;;;;;;;;;;;;;;;;;5096510;28;20467;-86
2022/01/05 04:38:25;;;;;;;;;;;;;;;;;;5096537;28;20046;-87
2022/01/05 04:40:52;;;;;;;;;;;;;;;;;;5096571;28;20054;-87
2022/01/05 04:43:19;;;;;;;;;;;;;;;;;;5096192;28;20071;-87
2022/01/05 04:45:47;;;;;;;;;;;;;;;;;;5096227;28;19957;-86
2022/01/05 04:48:14;;;;;;;;;;;;;;;;;;5096274;28;19984;-87
2022/01/05 04:50:41;;;;;;;;;;;;;;;;;;5096185;28;20063;-87
2022/01/05 04:53:11;;;;;;;;;;;;;;;;;;5096039;28;20711;-87
2022/01/05 04:55:38;;;;;;;;;;;;;;;;;;5096179;28;20052;-87
2022/01/05 04:58:05;;;;;;;;;;;;;;;;;;5095957;28;20369;-88
2022/01/05 05:00:32;;;;;;;;;;;;;;;;;;5096041;28;20010;-87
2022/01/05 05:02:59;;;;;;;;;;;;;;;;;;5096018;28;20064;-87
2022/01/05 05:05:26;;;;;;;;;;;;;;;;;;5095679;28;19956;-87
2022/01/05 05:07:53;;;;;;;;;;;;;;;;;;5095866;28;20004;-86
2022/01/05 05:10:20;;;;;;;;;;;;;;;;;;5095804;28;20046;-87
2022/01/05 05:12:48;;;;;;;;;;;;;;;;;;5095622;28;20431;-86
2022/01/05 05:15:15;;;;;;;;;;;;;;;;;;5095662;28;20369;-86
2022/01/05 05:17:42;;;;;;;;;;;;;;;;;;5095949;28;20046;-88
2022/01/05 05:20:09;;;;;;;;;;;;;;;;;;5095485;28;20403;-87
2022/01/05 05:22:36;;;;;;;;;;;;;;;;;;5095696;28;20050;-86
2022/01/05 05:25:03;;;;;;;;;;;;;;;;;;5095774;28;20004;-87
2022/01/05 05:27:30;;;;;;;;;;;;;;;;;;5095415;28;20043;-86
2022/01/05 05:29:57;;;;;;;;;;;;;;;;;;5095366;28;20377;-87
2022/01/05 05:32:24;;;;;;;;;;;;;;;;;;5095471;28;20034;-87
2022/01/05 05:34:51;;;;;;;;;;;;;;;;;;5095360;28;20044;-86
2022/01/05 05:37:18;;;;;;;;;;;;;;;;;;5095126;28;20500;-86
2022/01/05 05:39:45;;;;;;;;;;;;;;;;;;5095276;28;20005;-86
2022/01/05 05:42:12;;;;;;;;;;;;;;;;;;5095122;28;20075;-86
2022/01/05 05:44:39;;;;;;;;;;;;;;;;;;5095053;28;20053;-86
2022/01/05 05:47:06;;;;;;;;;;;;;;;;;;5094991;28;20043;-86
2022/01/05 05:49:33;;;;;;;;;;;;;;;;;;5094902;28;19977;-86
2022/01/05 05:52:00;;;;;;;;;;;;;;;;;;5094906;28;20471;-86
2022/01/05 05:54:27;;;;;;;;;;;;;;;;;;5095057;28;20056;-85
2022/01/05 05:56:54;;;;;;;;;;;;;;;;;;5095305;28;20049;-86
2022/01/05 05:59:21;;;;;;;;;;;;;;;;;;5095061;28;20050;-86
2022/01/05 06:01:48;;;;;;;;;;;;;;;;;;5095456;28;20059;-86
2022/01/05 06:04:15;;;;;;;;;;;;;;;;;;5094884;28;20400;-85
2022/01/05 06:06:42;;;;;;;;;;;;;;;;;;5094751;28;20009;-86
2022/01/05 06:09:09;;;;;;;;;;;;;;;;;;5095081;28;20440;-87
2022/01/05 06:11:36;;;;;;;;;;;;;;;;;;5095085;28;19992;-87
2022/01/05 06:14:03;;;;;;;;;;;;;;;;;;5094753;28;20004;-86
2022/01/05 06:16:30;;;;;;;;;;;;;;;;;;5094077;28;20367;-87
2022/01/05 06:18:57;;;;;;;;;;;;;;;;;;5094748;28;20033;-87
2022/01/05 06:21:24;;;;;;;;;;;;;;;;;;5094656;28;20047;-87
2022/01/05 06:23:51;;;;;;;;;;;;;;;;;;5094658;28;20077;-87
2022/01/05 06:26:18;;;;;;;;;;;;;;;;;;5094400;28;20054;-87
2022/01/05 06:28:45;;;;;;;;;;;;;;;;;;5094455;28;20059;-87
2022/01/05 06:31:12;;;;;;;;;;;;;;;;;;5094391;28;19994;-87
2022/01/05 06:33:39;;;;;;;;;;;;;;;;;;5094525;28;20051;-89
2022/01/05 06:36:06;;;;;;;;;;;;;;;;;;5094539;28;20061;-89
2022/01/05 06:38:33;;;;;;;;;;;;;;;;;;5094554;28;20053;-88
2022/01/05 06:41:00;;;;;;;;;;;;;;;;;;5094504;28;20058;-88
2022/01/05 06:43:26;;;;;;;;;;;;;;;;;;5094528;28;20397;-87
2022/01/05 06:45:53;;;;;;;;;;;;;;;;;;5094462;28;20051;-88
2022/01/05 06:48:20;;;;;;;;;;;;;;;;;;5094184;28;20067;-87
2022/01/05 06:50:47;;;;;;;;;;;;;;;;;;5094516;28;20074;-87
2022/01/05 06:53:14;;;;;;;;;;;;;;;;;;5094068;28;20003;-87
2022/01/05 06:55:41;;;;;;;;;;;;;;;;;;5094119;28;20056;-87
2022/01/05 06:58:08;;;;;;;;;;;;;;;;;;5094368;28;20011;-88
2022/01/05 07:00:35;;;;;;;;;;;;;;;;;;5094132;28;20038;-88
2022/01/05 07:03:04;;;;;;;;;;;;;;;;;;5093980;28;20067;-86
2022/01/05 07:05:31;;;;;;;;;;;;;;;;;;5093960;28;19961;-87
2022/01/05 07:07:58;;;;;;;;;;;;;;;;;;5093722;28;20367;-88
2022/01/05 07:10:25;;;;;;;;;;;;;;;;;;5094110;28;19991;-87
2022/01/05 07:12:52;;;;;;;;;;;;;;;;;;5093826;28;19996;-86
2022/01/05 07:15:19;;;;;;;;;;;;;;;;;;5093769;28;20003;-87
2022/01/05 07:17:46;;;;;;;;;;;;;;;;;;5093658;28;20476;-87
2022/01/05 07:20:13;;;;;;;;;;;;;;;;;;5093625;28;20069;-86
2022/01/05 07:22:40;;;;;;;;;;;;;;;;;;5093676;28;19970;-88
2022/01/05 07:25:07;;;;;;;;;;;;;;;;;;5093804;28;20415;-88
2022/01/05 07:27:34;;;;;;;;;;;;;;;;;;5095864;28;20053;-87
2022/01/05 07:30:01;;;;;;;;;;;;;;;;;;5098093;28;20040;-85
2022/01/05 07:32:28;;;;;;;;;;;;;;;;;;5097634;28;20049;-87
2022/01/05 07:34:55;;;;;;;;;;;;;;;;;;5097985;28;20001;-87
2022/01/05 07:37:22;;;;;;;;;;;;;;;;;;5098540;28;20049;-87
2022/01/05 07:39:49;;;;;;;;;;;;;;;;;;5099000;28;20046;-87
2022/01/05 07:42:16;;;;;;;;;;;;;;;;;;5098089;28;20001;-87
2022/01/05 07:44:43;;;;;;;;;;;;;;;;;;5098035;28;20307;-86
2022/01/05 07:47:10;;;;;;;;;;;;;;;;;;5097803;28;19951;-86
2022/01/05 07:49:38;;;;;;;;;;;;;;;;;;5097180;28;20498;-84
2022/01/05 07:52:05;;;;;;;;;;;;;;;;;;5097573;28;19960;-87
2022/01/05 07:54:33;;;;;;;;;;;;;;;;;;5097271;28;20470;-87
2022/01/05 07:56:59;;;;;;;;;;;;;;;;;;5097262;28;19966;-87
2022/01/05 07:59:26;;;;;;;;;;;;;;;;;;5097538;28;20427;-86
2022/01/05 08:01:53;;;;;;;;;;;;;;;;;;5097143;28;20236;-86
2022/01/05 08:04:20;;;;;;;;;;;;;;;;;;5097282;28;20152;-87
2022/01/05 08:06:47;;;;;;;;;;;;;;;;;;5096998;28;20586;-86
2022/01/05 08:09:14;;;;;;;;;;;;;;;;;;5097083;28;19996;-87
2022/01/05 08:11:41;;;;;;;;;;;;;;;;;;5096915;28;20471;-86
2022/01/05 08:14:08;;;;;;;;;;;;;;;;;;5097182;28;20017;-86
2022/01/05 08:16:36;;;;;;;;;;;;;;;;;;5096290;28;20402;-86
2022/01/05 08:19:03;;;;;;;;;;;;;;;;;;5096701;28;20312;-85
2022/01/05 08:21:29;;;;;;;;;;;;;;;;;;5096815;28;20042;-85
2022/01/05 08:23:56;;;;;;;;;;;;;;;;;;5096937;28;20073;-86
2022/01/05 08:26:23;;;;;;;;;;;;;;;;;;5096866;28;19999;-86
2022/01/05 08:28:50;;;;;;;;;;;;;;;;;;5096638;28;20043;-87
2022/01/05 08:31:17;;;;;;;;;;;;;;;;;;5096606;28;19978;-86
2022/01/05 08:33:44;;;;;;;;;;;;;;;;;;5096624;28;19997;-87
2022/01/05 08:36:11;;;;;;;;;;;;;;;;;;5096661;28;20044;-85
2022/01/05 08:38:38;;;;;;;;;;;;;;;;;;5095718;28;20001;-85
2022/01/05 08:41:05;;;;;;;;;;;;;;;;;;5096630;28;20453;-86
2022/01/05 08:43:33;;;;;;;;;;;;;;;;;;5096447;28;20056;-86
2022/01/05 08:46:00;;;;;;;;;;;;;;;;;;5096478;28;20051;-87
2022/01/05 08:48:27;;;;;;;;;;;;;;;;;;5096084;28;20059;-85
2022/01/05 08:50:54;;;;;;;;;;;;;;;;;;5096423;28;20050;-85
2022/01/05 08:53:21;;;;;;;;;;;;;;;;;;5096265;28;20046;-86
2022/01/05 08:55:48;;;;;;;;;;;;;;;;;;5096471;28;19969;-85
2022/01/05 08:58:15;;;;;;;;;;;;;;;;;;5096005;28;20050;-86
2022/01/05 09:00:42;;;;;;;;;;;;;;;;;;5095906;28;20055;-85
2022/01/05 09:03:09;;;;;;;;;;;;;;;;;;5095930;28;20527;-86
2022/01/05 09:05:36;;;;;;;;;;;;;;;;;;5095799;28;20323;-85
2022/01/05 09:08:03;;;;;;;;;;;;;;;;;;5095788;28;20043;-85
2022/01/05 09:10:30;;;;;;;;;;;;;;;;;;5095544;28;20002;-84
2022/01/05 09:12:57;;;;;;;;;;;;;;;;;;5095925;28;20579;-86
2022/01/05 09:15:24;;;;;;;;;;;;;;;;;;5095685;28;20040;-85
2022/01/05 09:17:51;;;;;;;;;;;;;;;;;;5095661;28;20046;-85
2022/01/05 09:20:18;;;;;;;;;;;;;;;;;;5095402;28;20007;-86
2022/01/05 09:22:45;;;;;;;;;;;;;;;;;;5095377;28;20057;-85
2022/01/05 09:25:12;;;;;;;;;;;;;;;;;;5095225;28;20521;-84
2022/01/05 09:27:39;;;;;;;;;;;;;;;;;;5095723;28;19997;-83
2022/01/05 09:30:06;;;;;;;;;;;;;;;;;;5095614;28;20050;-84
2022/01/05 09:32:33;;;;;;;;;;;;;;;;;;5095615;28;20048;-85
2022/01/05 09:35:00;;;;;;;;;;;;;;;;;;5095388;28;20068;-85
2022/01/05 09:37:31;;;;;;;;;;;;;;;;;;5095592;28;19952;-83
2022/01/05 09:42:43;;;;;;;;;;;;;;;;;;5095242;28;19949;-84
2022/01/05 09:45:10;;;;;;;;;;;;;;;;;;5095047;28;20409;-84
2022/01/05 09:47:37;;;;;;;;;;;;;;;;;;5095033;28;20032;-84
2022/01/05 09:50:04;;;;;;;;;;;;;;;;;;5094409;28;20018;-85
2022/01/05 09:52:31;;;;;;;;;;;;;;;;;;5094844;28;19954;-84
2022/01/05 09:54:58;;;;;;;;;;;;;;;;;;5095195;28;20046;-85
2022/01/05 09:57:25;;;;;;;;;;;;;;;;;;5095210;28;20020;-82
2022/01/05 09:59:52;;;;;;;;;;;;;;;;;;5095605;28;20059;-84
2022/01/05 10:02:19;;;;;;;;;;;;;;;;;;5095119;28;20050;-83
2022/01/05 10:04:46;;;;;;;;;;;;;;;;;;5094700;28;20001;-84
2022/01/05 10:07:13;;;;;;;;;;;;;;;;;;5094993;28;19994;-86
2022/01/05 10:09:42;;;;;;;;;;;;;;;;;;5095260;28;20044;-83
2022/01/05 10:12:09;;;;;;;;;;;;;;;;;;5094699;28;20043;-84
2022/01/05 10:14:36;;;;;;;;;;;;;;;;;;5094684;28;19981;-84
2022/01/05 10:17:03;;;;;;;;;;;;;;;;;;5094506;28;20054;-84
2022/01/05 10:19:30;;;;;;;;;;;;;;;;;;5094301;28;20371;-82
2022/01/05 10:21:57;;;;;;;;;;;;;;;;;;5094604;28;20073;-82
2022/01/05 10:24:24;;;;;;;;;;;;;;;;;;5094131;28;19965;-85
2022/01/05 10:26:51;;;;;;;;;;;;;;;;;;5094275;28;20366;-84
2022/01/05 10:29:20;;;;;;;;;;;;;;;;;;5094239;28;20048;-83
2022/01/05 10:31:47;;;;;;;;;;;;;;;;;;5093976;28;20317;-83
2022/01/05 10:34:14;;;;;;;;;;;;;;;;;;5094045;28;19962;-83
2022/01/05 10:36:41;;;;;;;;;;;;;;;;;;5094138;28;20406;-82
2022/01/05 10:39:08;;;;;;;;;;;;;;;;;;5094151;28;20037;-84
2022/01/05 10:41:35;;;;;;;;;;;;;;;;;;5094109;28;20053;-83
2022/01/05 10:44:02;;;;;;;;;;;;;;;;;;5093930;28;20008;-83
2022/01/05 10:46:29;;;;;;;;;;;;;;;;;;5093941;28;20380;-81
2022/01/05 10:48:56;;;;;;;;;;;;;;;;;;5093908;28;20056;-83
2022/01/05 10:51:23;;;;;;;;;;;;;;;;;;5094227;28;20028;-83
2022/01/05 10:53:50;;;;;;;;;;;;;;;;;;5093834;28;20045;-82
2022/01/05 10:56:17;;;;;;;;;;;;;;;;;;5093889;28;19990;-82
2022/01/05 10:58:45;;;;;;;;;;;;;;;;;;5093765;28;20023;-84
2022/01/05 11:01:12;;;;;;;;;;;;;;;;;;5093586;28;19984;-82
2022/01/05 11:03:41;;;;;;;;;;;;;;;;;;5093346;28;20032;-83
2022/01/05 11:06:08;;;;;;;;;;;;;;;;;;5093721;28;19959;-83
2022/01/05 11:08:35;;;;;;;;;;;;;;;;;;5093771;28;20035;-81
2022/01/05 11:11:02;;;;;;;;;;;;;;;;;;5093961;28;19956;-84
2022/01/05 11:13:29;;;;;;;;;;;;;;;;;;5093672;28;20019;-82
2022/01/05 11:15:56;;;;;;;;;;;;;;;;;;5093465;28;20036;-82
2022/01/05 11:18:23;;;;;;;;;;;;;;;;;;5093707;28;20053;-83
2022/01/05 11:20:51;;;;;;;;;;;;;;;;;;5093549;28;20041;-82
2022/01/05 11:23:18;;;;;;;;;;;;;;;;;;5093483;28;20016;-83
2022/01/05 11:25:45;;;;;;;;;;;;;;;;;;5093356;28;20082;-83
2022/01/05 11:28:12;;;;;;;;;;;;;;;;;;5093566;28;20043;-83
2022/01/05 11:30:39;;;;;;;;;;;;;;;;;;5093457;28;19956;-83
2022/01/05 11:33:06;;;;;;;;;;;;;;;;;;5093643;28;20022;-84
2022/01/05 11:35:33;;;;;;;;;;;;;;;;;;5093571;28;20017;-84
2022/01/05 11:38:00;;;;;;;;;;;;;;;;;;5093472;28;20056;-83
2022/01/05 11:40:29;;;;;;;;;;;;;;;;;;5093642;28;19951;-84
2022/01/05 11:42:56;;;;;;;;;;;;;;;;;;5093611;28;19953;-82
2022/01/05 11:45:23;;;;;;;;;;;;;;;;;;5093498;28;19980;-83
2022/01/05 11:47:50;;;;;;;;;;;;;;;;;;5093205;28;20037;-83
2022/01/05 11:50:17;;;;;;;;;;;;;;;;;;5093234;28;20048;-82
2022/01/05 11:52:44;;;;;;;;;;;;;;;;;;5093227;28;20400;-83
2022/01/05 11:55:13;;;;;;;;;;;;;;;;;;5093207;28;20037;-82
2022/01/05 11:57:41;;;;;;;;;;;;;;;;;;5093323;28;19996;-83
2022/01/05 12:00:08;;;;;;;;;;;;;;;;;;5093225;28;19990;-83
2022/01/05 12:02:35;;;;;;;;;;;;;;;;;;5093339;28;20035;-83
2022/01/05 12:05:02;;;;;;;;;;;;;;;;;;5093186;28;20073;-83
2022/01/05 12:07:29;;;;;;;;;;;;;;;;;;5093215;28;19958;-83
2022/01/05 12:09:56;;;;;;;;;;;;;;;;;;5093065;28;20388;-83
2022/01/05 12:12:24;;;;;;;;;;;;;;;;;;5093148;28;20048;-81
2022/01/05 12:14:51;;;;;;;;;;;;;;;;;;5095405;28;20027;-82
2022/01/05 12:17:19;;;;;;;;;;;;;;;;;;5096901;28;19988;-82
2022/01/05 12:19:46;;;;;;;;;;;;;;;;;;5096792;28;19960;-82
2022/01/05 12:22:13;;;;;;;;;;;;;;;;;;5096729;28;19988;-81
2022/01/05 12:24:40;;;;;;;;;;;;;;;;;;5096684;28;20496;-82
2022/01/05 12:27:07;;;;;;;;;;;;;;;;;;5096844;28;19985;-82
2022/01/05 12:29:34;;;;;;;;;;;;;;;;;;5096701;28;20057;-82
2022/01/05 12:32:01;;;;;;;;;;;;;;;;;;5096510;28;20052;-81
2022/01/05 12:34:28;;;;;;;;;;;;;;;;;;5096621;28;20451;-81
2022/01/05 12:36:56;;;;;;;;;;;;;;;;;;5096169;28;20037;-81
2022/01/05 12:39:22;;;;;;;;;;;;;;;;;;5096493;28;20000;-82
2022/01/05 12:41:50;;;;;;;;;;;;;;;;;;5096504;28;20043;-81
2022/01/05 12:44:18;;;;;;;;;;;;;;;;;;5096342;28;19964;-81
2022/01/05 12:46:45;;;;;;;;;;;;;;;;;;5096401;28;19953;-82
2022/01/05 12:49:12;;;;;;;;;;;;;;;;;;5096086;28;20070;-82
2022/01/05 12:51:41;;;;;;;;;;;;;;;;;;5096165;28;20042;-82
2022/01/05 12:54:08;;;;;;;;;;;;;;;;;;5096103;28;19960;-84
2022/01/05 12:56:35;;;;;;;;;;;;;;;;;;5096244;28;20048;-83
2022/01/05 12:59:02;;;;;;;;;;;;;;;;;;5095923;28;20051;-82
2022/01/05 13:01:29;;;;;;;;;;;;;;;;;;5095861;28;20004;-82
2022/01/05 13:03:57;;;;;;;;;;;;;;;;;;5077499;28;20027;-82
2022/01/05 13:06:24;;;;;;;;;;;;;;;;;;5074278;28;20314;-83
2022/01/05 13:08:51;;;;;;;;;;;;;;;;;;5074290;28;20038;-83
2022/01/05 13:11:18;;;;;;;;;;;;;;;;;;5074095;28;19953;-81
2022/01/05 13:13:46;;;;;;;;;;;;;;;;;;5073956;28;20047;-82
2022/01/05 13:16:13;;;;;;;;;;;;;;;;;;5073913;28;19946;-82
2022/01/05 13:18:40;;;;;;;;;;;;;;;;;;5073982;28;20077;-81
2022/01/05 13:21:07;;;;;;;;;;;;;;;;;;5073817;28;20034;-82
2022/01/05 13:23:34;;;;;;;;;;;;;;;;;;5075113;28;19950;-81
2022/01/05 13:26:01;;;;;;;;;;;;;;;;;;5075026;28;20072;-83
2022/01/05 13:28:28;;;;;;;;;;;;;;;;;;5075159;28;20039;-84
2022/01/05 13:30:55;;;;;;;;;;;;;;;;;;5075096;28;20038;-84
2022/01/05 13:33:22;;;;;;;;;;;;;;;;;;5075113;28;20001;-84
2022/01/05 13:35:49;;;;;;;;;;;;;;;;;;5075318;28;19953;-83
2022/01/05 13:38:17;;;;;;;;;;;;;;;;;;5075225;28;20045;-83
2022/01/05 13:40:44;;;;;;;;;;;;;;;;;;5074956;28;20377;-83
2022/01/05 13:43:11;;;;;;;;;;;;;;;;;;5074806;28;20010;-83
2022/01/05 13:45:39;;;;;;;;;;;;;;;;;;5074908;28;20004;-85
2022/01/05 13:48:06;;;;;;;;;;;;;;;;;;5074689;28;20340;-84
2022/01/05 13:50:33;;;;;;;;;;;;;;;;;;5074773;28;20043;-84
2022/01/05 13:53:00;;;;;;;;;;;;;;;;;;5074907;28;20007;-83
2022/01/05 13:55:27;;;;;;;;;;;;;;;;;;5074579;28;20129;-83
2022/01/05 13:57:54;;;;;;;;;;;;;;;;;;5074508;28;20048;-84
2022/01/05 14:00:21;;;;;;;;;;;;;;;;;;5074359;28;19984;-84
2022/01/05 14:02:48;;;;;;;;;;;;;;;;;;5074404;28;19986;-84
2022/01/05 14:05:15;;;;;;;;;;;;;;;;;;5074166;28;20393;-83
2022/01/05 14:07:43;;;;;;;;;;;;;;;;;;5074294;28;20045;-84
2022/01/05 14:10:10;;;;;;;;;;;;;;;;;;5074537;28;20049;-83
2022/01/05 14:12:37;;;;;;;;;;;;;;;;;;5074295;28;20001;-84
2022/01/05 14:15:05;;;;;;;;;;;;;;;;;;5074175;28;20448;-83
2022/01/05 14:17:32;;;;;;;;;;;;;;;;;;5074349;28;19954;-83
2022/01/05 14:20:00;;;;;;;;;;;;;;;;;;5074264;28;19953;-83
2022/01/05 14:22:27;;;;;;;;;;;;;;;;;;5073985;28;19953;-83
2022/01/05 14:24:55;;;;;;;;;;;;;;;;;;5074027;28;20028;-84
2022/01/05 14:27:22;;;;;;;;;;;;;;;;;;5074058;28;19924;-84
2022/01/05 14:29:49;;;;;;;;;;;;;;;;;;5074071;28;19957;-84
2022/01/05 14:32:16;;;;;;;;;;;;;;;;;;5074514;28;19943;-82
2022/01/05 14:34:47;;;;;;;;;;;;;;;;;;5074217;28;19951;-82
2022/01/05 14:37:15;;;;;;;;;;;;;;;;;;5073531;28;19929;-83
2022/01/05 14:39:42;;;;;;;;;;;;;;;;;;5073808;28;19924;-83
2022/01/05 14:42:10;;;;;;;;;;;;;;;;;;5073719;28;19996;-83
2022/01/05 14:44:37;;;;;;;;;;;;;;;;;;5073814;28;19931;-84
2022/01/05 14:47:04;;;;;;;;;;;;;;;;;;5073659;28;20038;-83
2022/01/05 14:49:31;;;;;;;;;;;;;;;;;;5073720;28;19963;-84
2022/01/05 14:51:58;;;;;;;;;;;;;;;;;;5073688;28;20015;-83
2022/01/05 14:54:25;;;;;;;;;;;;;;;;;;5073429;28;19949;-84
2022/01/05 14:56:52;;;;;;;;;;;;;;;;;;5073813;28;19946;-83
2022/01/05 14:59:19;;;;;;;;;;;;;;;;;;5073377;28;20342;-82
2022/01/05 15:01:46;;;;;;;;;;;;;;;;;;5073644;28;20015;-83
2022/01/05 15:04:12;;;;;;;;;;;;;;;;;;5073603;28;20019;-83
2022/01/05 15:06:39;;;;;;;;;;;;;;;;;;5073509;28;20402;-83
2022/01/05 15:09:06;;;;;;;;;;;;;;;;;;5073399;28;20007;-83
2022/01/05 15:11:33;;;;;;;;;;;;;;;;;;5073728;28;20027;-82
2022/01/05 15:14:00;;;;;;;;;;;;;;;;;;5073272;28;20033;-83
2022/01/05 15:16:27;;;;;;;;;;;;;;;;;;5073235;28;20362;-83
2022/01/05 15:18:54;;;;;;;;;;;;;;;;;;5073329;28;20046;-83
2022/01/05 15:21:21;;;;;;;;;;;;;;;;;;5073366;28;20028;-82
2022/01/05 15:23:48;;;;;;;;;;;;;;;;;;5073279;28;20036;-82
2022/01/05 15:26:16;;;;;;;;;;;;;;;;;;5073457;28;20074;-82
2022/01/05 15:28:43;;;;;;;;;;;;;;;;;;5073502;28;19948;-83
2022/01/05 15:31:10;;;;;;;;;;;;;;;;;;5073571;28;20019;-83
2022/01/05 15:33:37;;;;;;;;;;;;;;;;;;5073199;28;20027;-83
2022/01/05 15:36:04;;;;;;;;;;;;;;;;;;5073395;28;20458;-83
2022/01/05 15:38:31;;;;;;;;;;;;;;;;;;5073485;28;19956;-83
2022/01/05 15:40:58;;;;;;;;;;;;;;;;;;5073418;28;19963;-83
2022/01/05 15:43:25;;;;;;;;;;;;;;;;;;5073238;28;20015;-83
2022/01/05 15:45:52;;;;;;;;;;;;;;;;;;5073347;28;20040;-83
2022/01/05 15:48:19;;;;;;;;;;;;;;;;;;5072987;28;19975;-83
2022/01/05 15:50:46;;;;;;;;;;;;;;;;;;5076973;28;19925;-82
2022/01/05 15:53:15;;;;;;;;;;;;;;;;;;5077095;28;19925;-83
2022/01/05 15:55:48;;;;;;;;;;;;;;;;;;5077190;28;19931;-84
2022/01/05 16:01:21;;;;;;;;;;;;;;;;;;5076881;28;20405;-84
2022/01/05 16:03:48;;;;;;;;;;;;;;;;;;5077098;28;19933;-83
2022/01/05 16:06:15;;;;;;;;;;;;;;;;;;5076835;28;19935;-82
2022/01/05 16:08:42;;;;;;;;;;;;;;;;;;5076730;28;20034;-83
2022/01/05 16:11:09;;;;;;;;;;;;;;;;;;5076752;28;20353;-83
2022/01/05 16:13:37;;;;;;;;;;;;;;;;;;5076729;28;20034;-84
2022/01/05 16:16:05;;;;;;;;;;;;;;;;;;5076882;28;20334;-84
2022/01/05 16:18:32;;;;;;;;;;;;;;;;;;5076789;28;19997;-83
2022/01/05 16:20:59;;;;;;;;;;;;;;;;;;5076931;28;19980;-83
2022/01/05 16:23:26;;;;;;;;;;;;;;;;;;5076573;28;20015;-83
2022/01/05 16:25:53;;;;;;;;;;;;;;;;;;5076373;28;20013;-82
2022/01/05 16:28:20;;;;;;;;;;;;;;;;;;5076312;28;20039;-82
2022/01/05 16:30:47;;;;;;;;;;;;;;;;;;5076348;28;19995;-83
2022/01/05 16:33:14;;;;;;;;;;;;;;;;;;5076285;28;20008;-81
2022/01/05 16:35:43;;;;;;;;;;;;;;;;;;5076351;28;20029;-83
2022/01/05 16:38:10;;;;;;;;;;;;;;;;;;5076168;28;19925;-81
2022/01/05 16:40:37;;;;;;;;;;;;;;;;;;5076143;28;20438;-83
2022/01/05 16:43:04;;;;;;;;;;;;;;;;;;5076242;28;20012;-81
2022/01/05 16:45:31;;;;;;;;;;;;;;;;;;5076104;28;20016;-81
2022/01/05 16:47:58;;;;;;;;;;;;;;;;;;5075938;28;19945;-81
2022/01/05 16:50:25;;;;;;;;;;;;;;;;;;5075949;28;20016;-82
2022/01/05 16:52:52;;;;;;;;;;;;;;;;;;5075939;28;19971;-83